createdAt,value
2022-10-28T00:00:42.507Z,1015.91
2022-10-28T00:01:42.588Z,1015.91
2022-10-28T00:02:42.595Z,1015.90
2022-10-28T00:03:42.475Z,1015.91
2022-10-28T00:04:42.475Z,1015.93
2022-10-28T00:05:42.444Z,1015.95
2022-10-28T00:06:42.449Z,1015.97
2022-10-28T00:07:42.426Z,1016.04
2022-10-28T00:08:42.424Z,1015.92
2022-10-28T00:09:42.439Z,1015.99
2022-10-28T00:10:42.399Z,1015.99
2022-10-28T00:11:42.382Z,1015.96
2022-10-28T00:12:42.382Z,1016.04
2022-10-28T00:13:42.361Z,1016.01
2022-10-28T00:14:42.368Z,1016.06
2022-10-28T00:15:42.343Z,1016.05
2022-10-28T00:16:42.335Z,1016.08
2022-10-28T00:17:42.318Z,1016.03
2022-10-28T00:18:42.334Z,1016.01
2022-10-28T00:19:42.320Z,1016.05
2022-10-28T00:20:42.290Z,1016.07
2022-10-28T00:21:42.279Z,1015.99
2022-10-28T00:22:42.273Z,1016.10
2022-10-28T00:23:42.255Z,1016.06
2022-10-28T00:24:42.253Z,1016.07
2022-10-28T00:25:42.228Z,1016.05
2022-10-28T00:26:42.245Z,1016.08
2022-10-28T00:27:42.221Z,1016.11
2022-10-28T00:28:42.198Z,1016.07
2022-10-28T00:29:42.193Z,1016.05
2022-10-28T00:30:42.214Z,1016.00
2022-10-28T00:31:42.175Z,1015.99
2022-10-28T00:32:42.161Z,1015.98
2022-10-28T00:33:42.159Z,1016.01
2022-10-28T00:34:42.142Z,1016.02
2022-10-28T00:35:42.117Z,1016.04
2022-10-28T00:36:42.116Z,1016.06
2022-10-28T00:37:42.098Z,1016.07
2022-10-28T00:38:42.087Z,1016.05
2022-10-28T00:39:42.105Z,1016.04
2022-10-28T00:40:42.065Z,1016.01
2022-10-28T00:41:42.049Z,1016.00
2022-10-28T00:42:42.045Z,1015.99
2022-10-28T00:43:42.035Z,1015.99
2022-10-28T00:44:42.021Z,1016.00
2022-10-28T00:45:42.016Z,1015.95
2022-10-28T00:46:42.007Z,1015.96
2022-10-28T00:47:41.989Z,1015.97
2022-10-28T00:48:41.987Z,1015.95
2022-10-28T00:49:41.969Z,1015.93
2022-10-28T00:50:41.965Z,1015.90
2022-10-28T00:51:41.945Z,1015.92
2022-10-28T00:52:41.937Z,1015.86
2022-10-28T00:53:41.919Z,1015.87
2022-10-28T00:54:41.919Z,1015.85
2022-10-28T00:55:41.913Z,1015.85
2022-10-28T00:56:41.896Z,1015.84
2022-10-28T00:57:41.877Z,1015.80
2022-10-28T00:58:41.874Z,1015.82
2022-10-28T00:59:41.856Z,1015.83
2022-10-28T01:00:41.856Z,1015.86
2022-10-28T01:01:41.924Z,1015.87
2022-10-28T01:02:41.873Z,1015.86
2022-10-28T01:03:41.822Z,1015.90
2022-10-28T01:04:41.808Z,1015.88
2022-10-28T01:05:41.806Z,1015.86
2022-10-28T01:06:41.780Z,1015.83
2022-10-28T01:07:41.764Z,1015.85
2022-10-28T01:08:41.757Z,1015.84
2022-10-28T01:09:41.748Z,1015.81
2022-10-28T01:10:41.741Z,1015.84
2022-10-28T01:11:41.725Z,1015.88
2022-10-28T01:12:41.706Z,1015.88
2022-10-28T01:13:41.709Z,1015.86
2022-10-28T01:14:41.692Z,1015.91
2022-10-28T01:15:41.684Z,1015.92
2022-10-28T01:16:41.703Z,1015.90
2022-10-28T01:17:41.656Z,1015.87
2022-10-28T01:18:41.643Z,1015.84
2022-10-28T01:19:41.627Z,1015.85
2022-10-28T01:20:43.294Z,1015.84
2022-10-28T01:21:41.606Z,1015.82
2022-10-28T01:22:41.623Z,1015.79
2022-10-28T01:23:41.589Z,1015.80
2022-10-28T01:24:41.587Z,1015.79
2022-10-28T01:25:41.570Z,1015.82
2022-10-28T01:26:41.557Z,1015.85
2022-10-28T01:27:41.556Z,1015.81
2022-10-28T01:28:41.535Z,1015.76
2022-10-28T01:29:41.524Z,1015.76
2022-10-28T01:30:41.512Z,1015.73
2022-10-28T01:31:41.498Z,1015.73
2022-10-28T01:32:41.512Z,1015.70
2022-10-28T01:33:41.490Z,1015.71
2022-10-28T01:34:41.461Z,1015.69
2022-10-28T01:35:41.456Z,1015.69
2022-10-28T01:36:41.438Z,1015.71
2022-10-28T01:37:41.431Z,1015.69
2022-10-28T01:38:41.457Z,1015.65
2022-10-28T01:39:41.411Z,1015.67
2022-10-28T01:40:41.402Z,1015.65
2022-10-28T01:41:41.380Z,1015.60
2022-10-28T01:42:41.379Z,1015.60
2022-10-28T01:43:41.365Z,1015.55
2022-10-28T01:44:41.372Z,1015.59
2022-10-28T01:45:41.336Z,1015.58
2022-10-28T01:46:41.338Z,1015.57
2022-10-28T01:47:41.316Z,1015.58
2022-10-28T01:48:41.313Z,1015.60
2022-10-28T01:49:41.299Z,1015.58
2022-10-28T01:50:41.290Z,1015.60
2022-10-28T01:51:41.269Z,1015.63
2022-10-28T01:52:41.270Z,1015.64
2022-10-28T01:53:41.259Z,1015.63
2022-10-28T01:54:41.252Z,1015.61
2022-10-28T01:55:41.240Z,1015.60
2022-10-28T01:56:41.224Z,1015.56
2022-10-28T01:57:41.207Z,1015.55
2022-10-28T01:58:41.203Z,1015.54
2022-10-28T01:59:41.198Z,1015.49
2022-10-28T02:00:41.264Z,1015.51
2022-10-28T02:01:41.379Z,1015.51
2022-10-28T02:02:41.154Z,1015.47
2022-10-28T02:03:41.146Z,1015.49
2022-10-28T02:04:41.142Z,1015.47
2022-10-28T02:05:41.117Z,1015.49
2022-10-28T02:06:41.113Z,1015.45
2022-10-28T02:07:41.094Z,1015.47
2022-10-28T02:08:41.104Z,1015.42
2022-10-28T02:09:41.103Z,1015.43
2022-10-28T02:10:41.062Z,1015.45
2022-10-28T02:11:41.048Z,1015.44
2022-10-28T02:12:41.043Z,1015.44
2022-10-28T02:13:41.025Z,1015.41
2022-10-28T02:14:41.036Z,1015.43
2022-10-28T02:15:41.012Z,1015.40
2022-10-28T02:16:40.997Z,1015.40
2022-10-28T02:17:40.984Z,1015.42
2022-10-28T02:18:40.974Z,1015.42
2022-10-28T02:19:40.960Z,1015.42
2022-10-28T02:20:40.953Z,1015.43
2022-10-28T02:21:40.949Z,1015.43
2022-10-28T02:22:40.928Z,1015.41
2022-10-28T02:23:40.920Z,1015.46
2022-10-28T02:24:40.914Z,1015.43
2022-10-28T02:25:40.888Z,1015.44
2022-10-28T02:26:40.902Z,1015.43
2022-10-28T02:27:40.865Z,1015.40
2022-10-28T02:28:40.860Z,1015.44
2022-10-28T02:29:40.853Z,1015.41
2022-10-28T02:30:40.844Z,1015.45
2022-10-28T02:31:40.846Z,1015.43
2022-10-28T02:32:40.871Z,1015.45
2022-10-28T02:33:40.809Z,1015.49
2022-10-28T02:34:40.795Z,1015.49
2022-10-28T02:35:40.788Z,1015.51
2022-10-28T02:36:40.778Z,1015.52
2022-10-28T02:37:40.770Z,1015.53
2022-10-28T02:38:40.749Z,1015.50
2022-10-28T02:39:40.735Z,1015.53
2022-10-28T02:40:40.759Z,1015.53
2022-10-28T02:41:40.731Z,1015.47
2022-10-28T02:42:40.713Z,1015.47
2022-10-28T02:43:40.698Z,1015.41
2022-10-28T02:44:40.681Z,1015.47
2022-10-28T02:45:40.673Z,1015.42
2022-10-28T02:46:40.656Z,1015.41
2022-10-28T02:47:40.679Z,1015.43
2022-10-28T02:48:40.638Z,1015.36
2022-10-28T02:49:40.633Z,1015.35
2022-10-28T02:50:40.620Z,1015.34
2022-10-28T02:51:40.602Z,1015.33
2022-10-28T02:52:40.596Z,1015.31
2022-10-28T02:53:40.595Z,1015.37
2022-10-28T02:54:40.572Z,1015.36
2022-10-28T02:55:40.559Z,1015.38
2022-10-28T02:56:40.547Z,1015.33
2022-10-28T02:57:40.546Z,1015.37
2022-10-28T02:58:40.535Z,1015.44
2022-10-28T02:59:40.520Z,1015.43
2022-10-28T03:00:40.536Z,1015.46
2022-10-28T03:01:40.637Z,1015.47
2022-10-28T03:02:40.486Z,1015.46
2022-10-28T03:03:40.492Z,1015.41
2022-10-28T03:04:40.470Z,1015.41
2022-10-28T03:05:40.459Z,1015.45
2022-10-28T03:06:40.436Z,1015.42
2022-10-28T03:07:40.441Z,1015.42
2022-10-28T03:08:40.415Z,1015.41
2022-10-28T03:09:40.424Z,1015.39
2022-10-28T03:10:40.392Z,1015.37
2022-10-28T03:11:40.392Z,1015.42
2022-10-28T03:12:40.381Z,1015.42
2022-10-28T03:13:40.361Z,1015.38
2022-10-28T03:14:40.364Z,1015.38
2022-10-28T03:15:40.346Z,1015.34
2022-10-28T03:16:40.336Z,1015.37
2022-10-28T03:17:40.322Z,1015.37
2022-10-28T03:18:40.309Z,1015.40
2022-10-28T03:19:40.305Z,1015.36
2022-10-28T03:20:40.287Z,1015.34
2022-10-28T03:21:40.285Z,1015.33
2022-10-28T03:22:40.263Z,1015.31
2022-10-28T03:23:40.258Z,1015.31
2022-10-28T03:24:40.246Z,1015.30
2022-10-28T03:25:40.237Z,1015.28
2022-10-28T03:26:40.219Z,1015.30
2022-10-28T03:27:40.234Z,1015.29
2022-10-28T03:28:40.204Z,1015.28
2022-10-28T03:29:44.833Z,1015.27
2022-10-28T03:30:40.205Z,1015.27
2022-10-28T03:31:40.169Z,1015.26
2022-10-28T03:32:40.153Z,1015.25
2022-10-28T03:33:40.144Z,1015.25
2022-10-28T03:34:40.143Z,1015.25
2022-10-28T03:35:40.133Z,1015.22
2022-10-28T03:36:40.116Z,1015.24
2022-10-28T03:37:40.104Z,1015.27
2022-10-28T03:38:40.095Z,1015.33
2022-10-28T03:39:40.084Z,1015.32
2022-10-28T03:40:40.071Z,1015.35
2022-10-28T03:41:40.053Z,1015.35
2022-10-28T03:42:41.208Z,1015.39
2022-10-28T03:43:40.036Z,1015.38
2022-10-28T03:44:40.043Z,1015.39
2022-10-28T03:45:40.218Z,1015.43
2022-10-28T03:46:40.001Z,1015.43
2022-10-28T03:47:40.009Z,1015.47
2022-10-28T03:48:39.979Z,1015.48
2022-10-28T03:49:39.980Z,1015.55
2022-10-28T03:50:39.981Z,1015.53
2022-10-28T03:51:39.958Z,1015.49
2022-10-28T03:52:39.940Z,1015.45
2022-10-28T03:53:39.931Z,1015.39
2022-10-28T03:54:39.922Z,1015.40
2022-10-28T03:55:39.918Z,1015.35
2022-10-28T03:56:39.898Z,1015.34
2022-10-28T03:57:39.888Z,1015.30
2022-10-28T03:58:41.230Z,1015.32
2022-10-28T03:59:39.869Z,1015.33
2022-10-28T04:00:39.858Z,1015.31
2022-10-28T04:01:39.884Z,1015.29
2022-10-28T04:02:39.824Z,1015.30
2022-10-28T04:03:39.827Z,1015.26
2022-10-28T04:04:39.807Z,1015.24
2022-10-28T04:05:39.808Z,1015.26
2022-10-28T04:06:39.789Z,1015.21
2022-10-28T04:07:39.777Z,1015.16
2022-10-28T04:08:39.766Z,1015.18
2022-10-28T04:09:39.768Z,1015.17
2022-10-28T04:10:42.616Z,1015.19
2022-10-28T04:11:39.744Z,1015.22
2022-10-28T04:12:39.713Z,1015.22
2022-10-28T04:13:39.729Z,1015.24
2022-10-28T04:14:39.693Z,1015.25
2022-10-28T04:15:39.711Z,1015.25
2022-10-28T04:16:39.677Z,1015.22
2022-10-28T04:17:39.665Z,1015.28
2022-10-28T04:18:39.655Z,1015.28
2022-10-28T04:19:39.639Z,1015.28
2022-10-28T04:20:39.646Z,1015.30
2022-10-28T04:21:39.628Z,1015.30
2022-10-28T04:22:39.612Z,1015.34
2022-10-28T04:23:39.605Z,1015.33
2022-10-28T04:24:39.584Z,1015.34
2022-10-28T04:25:39.592Z,1015.30
2022-10-28T04:26:39.573Z,1015.29
2022-10-28T04:27:39.565Z,1015.25
2022-10-28T04:28:39.543Z,1015.24
2022-10-28T04:29:39.546Z,1015.20
2022-10-28T04:30:39.539Z,1015.18
2022-10-28T04:31:39.548Z,1015.18
2022-10-28T04:32:39.546Z,1015.16
2022-10-28T04:33:39.514Z,1015.14
2022-10-28T04:34:39.482Z,1015.11
2022-10-28T04:35:39.487Z,1015.10
2022-10-28T04:36:39.497Z,1015.08
2022-10-28T04:37:39.912Z,1015.07
2022-10-28T04:38:39.439Z,1015.08
2022-10-28T04:39:39.428Z,1015.12
2022-10-28T04:40:39.425Z,1015.08
2022-10-28T04:41:39.425Z,1015.11
2022-10-28T04:42:39.391Z,1015.15
2022-10-28T04:43:39.390Z,1015.08
2022-10-28T04:44:39.369Z,1015.16
2022-10-28T04:45:39.375Z,1015.15
2022-10-28T04:46:39.362Z,1015.16
2022-10-28T04:47:39.355Z,1015.11
2022-10-28T04:48:39.330Z,1015.16
2022-10-28T04:49:39.320Z,1015.15
2022-10-28T04:50:39.309Z,1015.15
2022-10-28T04:51:39.364Z,1015.14
2022-10-28T04:52:39.291Z,1015.10
2022-10-28T04:53:39.279Z,1015.12
2022-10-28T04:54:39.267Z,1015.11
2022-10-28T04:55:39.257Z,1015.14
2022-10-28T04:56:39.254Z,1015.13
2022-10-28T04:57:39.242Z,1015.15
2022-10-28T04:58:39.222Z,1015.12
2022-10-28T04:59:39.215Z,1015.10
2022-10-28T05:00:39.199Z,1015.10
2022-10-28T05:01:39.324Z,1015.14
2022-10-28T05:02:43.819Z,1015.15
2022-10-28T05:03:39.181Z,1015.11
2022-10-28T05:04:39.158Z,1015.18
2022-10-28T05:05:39.150Z,1015.13
2022-10-28T05:06:39.305Z,1015.15
2022-10-28T05:07:39.118Z,1015.07
2022-10-28T05:08:39.110Z,1015.05
2022-10-28T05:09:39.117Z,1015.04
2022-10-28T05:10:39.087Z,1015.03
2022-10-28T05:11:39.102Z,1015.03
2022-10-28T05:12:39.066Z,1015.05
2022-10-28T05:13:39.061Z,1015.08
2022-10-28T05:14:39.046Z,1015.12
2022-10-28T05:15:39.041Z,1015.16
2022-10-28T05:16:39.035Z,1015.15
2022-10-28T05:17:39.009Z,1015.18
2022-10-28T05:18:39.039Z,1015.16
2022-10-28T05:19:38.987Z,1015.14
2022-10-28T05:20:38.983Z,1015.13
2022-10-28T05:21:38.980Z,1015.11
2022-10-28T05:22:38.958Z,1015.16
2022-10-28T05:23:38.949Z,1015.07
2022-10-28T05:24:38.975Z,1015.05
2022-10-28T05:25:38.932Z,1015.01
2022-10-28T05:26:38.917Z,1014.99
2022-10-28T05:27:38.909Z,1014.96
2022-10-28T05:28:38.899Z,1014.98
2022-10-28T05:29:38.885Z,1014.97
2022-10-28T05:30:38.871Z,1015.00
2022-10-28T05:31:38.874Z,1014.99
2022-10-28T05:32:38.849Z,1015.00
2022-10-28T05:33:38.835Z,1014.99
2022-10-28T05:34:38.834Z,1015.01
2022-10-28T05:35:38.817Z,1015.00
2022-10-28T05:36:38.816Z,1014.99
2022-10-28T05:37:38.822Z,1015.00
2022-10-28T05:38:38.777Z,1014.98
2022-10-28T05:39:38.772Z,1014.99
2022-10-28T05:40:38.760Z,1015.02
2022-10-28T05:41:38.986Z,1014.99
2022-10-28T05:42:38.746Z,1014.94
2022-10-28T05:43:38.724Z,1014.90
2022-10-28T05:44:38.714Z,1014.90
2022-10-28T05:45:38.717Z,1014.93
2022-10-28T05:46:38.688Z,1014.94
2022-10-28T05:47:40.088Z,1014.95
2022-10-28T05:48:38.665Z,1014.93
2022-10-28T05:49:38.661Z,1014.93
2022-10-28T05:50:38.645Z,1014.90
2022-10-28T05:51:38.642Z,1014.89
2022-10-28T05:52:38.639Z,1014.87
2022-10-28T05:53:38.620Z,1014.85
2022-10-28T05:54:38.606Z,1014.89
2022-10-28T05:55:38.592Z,1014.91
2022-10-28T05:56:38.582Z,1014.95
2022-10-28T05:57:38.577Z,1014.94
2022-10-28T05:58:38.603Z,1014.97
2022-10-28T05:59:38.556Z,1014.98
2022-10-28T06:00:38.535Z,1014.96
2022-10-28T06:01:38.633Z,1014.95
2022-10-28T06:02:38.534Z,1014.98
2022-10-28T06:03:38.547Z,1014.98
2022-10-28T06:04:38.503Z,1014.98
2022-10-28T06:05:38.492Z,1015.01
2022-10-28T06:06:38.475Z,1014.95
2022-10-28T06:07:38.480Z,1014.87
2022-10-28T06:08:38.452Z,1014.84
2022-10-28T06:09:38.441Z,1014.87
2022-10-28T06:10:38.435Z,1014.78
2022-10-28T06:11:36.890Z,1014.83
2022-10-28T06:12:36.891Z,1014.83
2022-10-28T06:13:36.870Z,1014.83
2022-10-28T06:14:36.852Z,1014.86
2022-10-28T06:15:36.849Z,1014.82
2022-10-28T06:16:36.836Z,1014.81
2022-10-28T06:17:36.843Z,1014.87
2022-10-28T06:18:36.813Z,1014.81
2022-10-28T06:19:36.804Z,1014.80
2022-10-28T06:20:36.799Z,1014.80
2022-10-28T06:21:36.784Z,1014.85
2022-10-28T06:22:36.780Z,1014.81
2022-10-28T06:23:36.762Z,1014.77
2022-10-28T06:24:36.745Z,1014.78
2022-10-28T06:25:36.742Z,1014.75
2022-10-28T06:26:36.727Z,1014.72
2022-10-28T06:27:36.741Z,1014.74
2022-10-28T06:28:36.705Z,1014.72
2022-10-28T06:29:36.709Z,1014.72
2022-10-28T06:30:36.691Z,1014.72
2022-10-28T06:31:36.683Z,1014.72
2022-10-28T06:32:36.691Z,1014.73
2022-10-28T06:33:36.677Z,1014.72
2022-10-28T06:34:36.656Z,1014.73
2022-10-28T06:35:36.653Z,1014.71
2022-10-28T06:36:36.636Z,1014.71
2022-10-28T06:37:36.635Z,1014.72
2022-10-28T06:38:36.617Z,1014.70
2022-10-28T06:39:36.619Z,1014.71
2022-10-28T06:40:36.588Z,1014.69
2022-10-28T06:41:36.589Z,1014.67
2022-10-28T06:42:36.597Z,1014.68
2022-10-28T06:43:36.566Z,1014.61
2022-10-28T06:44:36.552Z,1014.62
2022-10-28T06:45:36.543Z,1014.62
2022-10-28T06:46:38.979Z,1014.64
2022-10-28T06:47:41.384Z,1014.65
2022-10-28T06:48:38.037Z,1014.71
2022-10-28T06:49:38.011Z,1014.70
2022-10-28T06:50:38.003Z,1014.71
2022-10-28T06:51:38.017Z,1014.70
2022-10-28T06:52:38.039Z,1014.77
2022-10-28T06:53:37.991Z,1014.82
2022-10-28T06:54:37.971Z,1014.76
2022-10-28T06:55:37.957Z,1014.77
2022-10-28T06:56:37.945Z,1014.76
2022-10-28T06:57:37.941Z,1014.75
2022-10-28T06:58:37.958Z,1014.75
2022-10-28T06:59:37.913Z,1014.76
2022-10-28T07:00:37.917Z,1014.77
2022-10-28T07:01:38.002Z,1014.78
2022-10-28T07:02:41.456Z,1014.76
2022-10-28T07:03:37.888Z,1014.80
2022-10-28T07:04:37.859Z,1014.84
2022-10-28T07:05:37.853Z,1014.80
2022-10-28T07:06:37.849Z,1014.83
2022-10-28T07:07:37.839Z,1014.84
2022-10-28T07:08:37.832Z,1014.86
2022-10-28T07:09:37.810Z,1014.90
2022-10-28T07:10:37.797Z,1014.94
2022-10-28T07:11:37.797Z,1014.98
2022-10-28T07:12:37.790Z,1014.95
2022-10-28T07:13:37.784Z,1014.91
2022-10-28T07:14:37.770Z,1014.94
2022-10-28T07:15:37.781Z,1014.93
2022-10-28T07:16:37.746Z,1014.88
2022-10-28T07:17:37.734Z,1014.90
2022-10-28T07:18:37.733Z,1014.84
2022-10-28T07:19:37.712Z,1014.81
2022-10-28T07:20:37.711Z,1014.83
2022-10-28T07:21:37.693Z,1014.87
2022-10-28T07:22:37.688Z,1014.92
2022-10-28T07:23:37.713Z,1014.92
2022-10-28T07:24:37.685Z,1014.92
2022-10-28T07:25:37.643Z,1014.95
2022-10-28T07:26:37.662Z,1014.94
2022-10-28T07:27:37.625Z,1014.93
2022-10-28T07:28:37.632Z,1014.93
2022-10-28T07:29:37.616Z,1014.94
2022-10-28T07:30:37.603Z,1014.99
2022-10-28T07:31:37.590Z,1015.00
2022-10-28T07:32:37.586Z,1014.96
2022-10-28T07:33:37.576Z,1014.95
2022-10-28T07:34:37.568Z,1014.84
2022-10-28T07:35:37.547Z,1014.81
2022-10-28T07:36:37.543Z,1014.77
2022-10-28T07:37:37.524Z,1014.83
2022-10-28T07:38:37.524Z,1014.82
2022-10-28T07:40:37.497Z,1014.79
2022-10-28T07:41:37.476Z,1014.76
2022-10-28T07:42:37.476Z,1014.77
2022-10-28T07:43:37.457Z,1014.78
2022-10-28T07:44:37.466Z,1014.74
2022-10-28T07:45:37.446Z,1014.69
2022-10-28T07:46:37.441Z,1014.81
2022-10-28T07:47:37.414Z,1014.80
2022-10-28T07:48:37.422Z,1014.76
2022-10-28T07:49:37.403Z,1014.77
2022-10-28T07:50:37.403Z,1014.78
2022-10-28T07:51:37.372Z,1014.81
2022-10-28T07:52:37.357Z,1014.75
2022-10-28T07:53:37.365Z,1014.79
2022-10-28T07:54:37.338Z,1014.78
2022-10-28T07:55:37.325Z,1014.75
2022-10-28T07:56:37.363Z,1014.70
2022-10-28T07:57:37.311Z,1014.66
2022-10-28T07:58:37.290Z,1014.64
2022-10-28T07:59:37.284Z,1014.65
2022-10-28T08:00:37.333Z,1014.70
2022-10-28T08:01:37.351Z,1014.71
2022-10-28T08:02:37.264Z,1014.69
2022-10-28T08:03:39.019Z,1014.70
2022-10-28T08:04:37.248Z,1014.70
2022-10-28T08:05:37.192Z,1014.74
2022-10-28T08:06:37.208Z,1014.76
2022-10-28T08:07:38.698Z,1014.82
2022-10-28T08:08:37.159Z,1014.86
2022-10-28T08:09:37.205Z,1014.83
2022-10-28T08:10:37.131Z,1014.84
2022-10-28T08:11:37.117Z,1014.84
2022-10-28T08:12:37.104Z,1014.87
2022-10-28T08:13:40.190Z,1014.87
2022-10-28T08:14:37.094Z,1014.82
2022-10-28T08:15:37.068Z,1014.85
2022-10-28T08:16:37.071Z,1014.93
2022-10-28T08:17:37.036Z,1014.96
2022-10-28T08:18:37.040Z,1015.05
2022-10-28T08:19:37.030Z,1015.09
2022-10-28T08:20:37.011Z,1015.05
2022-10-28T08:21:36.993Z,1015.04
2022-10-28T08:22:36.983Z,1015.01
2022-10-28T08:23:36.988Z,1014.89
2022-10-28T08:24:36.999Z,1014.91
2022-10-28T08:25:36.947Z,1014.93
2022-10-28T08:26:36.939Z,1014.95
2022-10-28T08:27:36.923Z,1014.93
2022-10-28T08:28:36.917Z,1014.97
2022-10-28T08:29:36.905Z,1014.95
2022-10-28T08:30:56.601Z,1014.98
2022-10-28T08:31:36.881Z,1014.98
2022-10-28T08:32:36.867Z,1014.98
2022-10-28T08:33:36.870Z,1015.02
2022-10-28T08:34:39.384Z,1015.03
2022-10-28T08:35:36.856Z,1015.03
2022-10-28T08:36:36.832Z,1015.06
2022-10-28T08:37:36.815Z,1015.08
2022-10-28T08:38:38.722Z,1015.01
2022-10-28T08:39:36.840Z,1015.02
2022-10-28T08:40:36.793Z,1014.99
2022-10-28T08:41:36.764Z,1015.01
2022-10-28T08:42:36.778Z,1014.97
2022-10-28T08:43:52.822Z,1014.83
2022-10-28T08:44:36.746Z,1014.83
2022-10-28T08:45:36.743Z,1014.85
2022-10-28T08:46:36.739Z,1014.84
2022-10-28T08:47:36.711Z,1014.79
2022-10-28T08:48:36.698Z,1014.78
2022-10-28T08:49:36.686Z,1014.76
2022-10-28T08:50:36.684Z,1014.76
2022-10-28T08:51:36.668Z,1014.73
2022-10-28T08:52:36.654Z,1014.80
2022-10-28T08:53:36.654Z,1014.83
2022-10-28T08:54:36.639Z,1014.86
2022-10-28T08:55:36.647Z,1014.82
2022-10-28T08:56:36.615Z,1014.84
2022-10-28T08:57:36.600Z,1014.83
2022-10-28T08:58:36.596Z,1014.84
2022-10-28T08:59:36.572Z,1014.88
2022-10-28T09:00:36.612Z,1014.91
2022-10-28T09:01:36.811Z,1014.96
2022-10-28T09:02:36.553Z,1014.99
2022-10-28T09:03:38.949Z,1014.94
2022-10-28T09:04:36.538Z,1015.00
2022-10-28T09:05:36.536Z,1014.96
2022-10-28T09:06:36.538Z,1014.97
2022-10-28T09:07:36.517Z,1015.02
2022-10-28T09:08:36.497Z,1015.01
2022-10-28T09:09:36.476Z,1015.01
2022-10-28T09:10:36.494Z,1015.01
2022-10-28T09:11:36.450Z,1015.01
2022-10-28T09:12:36.450Z,1014.96
2022-10-28T09:13:36.423Z,1014.91
2022-10-28T09:14:36.424Z,1014.90
2022-10-28T09:15:36.421Z,1014.88
2022-10-28T09:16:36.412Z,1014.84
2022-10-28T09:17:36.386Z,1014.84
2022-10-28T09:18:36.373Z,1014.80
2022-10-28T09:19:36.359Z,1014.79
2022-10-28T09:20:36.354Z,1014.80
2022-10-28T09:21:37.309Z,1014.77
2022-10-28T09:22:36.337Z,1014.79
2022-10-28T09:23:36.321Z,1014.76
2022-10-28T09:24:36.312Z,1014.68
2022-10-28T09:25:36.291Z,1014.73
2022-10-28T09:26:36.312Z,1014.70
2022-10-28T09:27:36.267Z,1014.70
2022-10-28T09:28:36.263Z,1014.68
2022-10-28T09:29:38.085Z,1014.70
2022-10-28T09:30:36.245Z,1014.73
2022-10-28T09:31:36.291Z,1014.73
2022-10-28T09:32:36.233Z,1014.75
2022-10-28T09:33:36.230Z,1014.76
2022-10-28T09:34:36.191Z,1014.76
2022-10-28T09:35:36.184Z,1014.75
2022-10-28T09:36:36.182Z,1014.77
2022-10-28T09:37:36.165Z,1014.78
2022-10-28T09:38:36.160Z,1014.74
2022-10-28T09:39:36.134Z,1014.74
2022-10-28T09:40:36.145Z,1014.73
2022-10-28T09:41:36.110Z,1014.73
2022-10-28T09:42:36.208Z,1014.68
2022-10-28T09:43:36.089Z,1014.67
2022-10-28T09:44:36.096Z,1014.69
2022-10-28T09:45:36.078Z,1014.72
2022-10-28T09:46:37.213Z,1014.68
2022-10-28T09:47:36.096Z,1014.69
2022-10-28T09:48:36.047Z,1014.74
2022-10-28T09:49:36.030Z,1014.71
2022-10-28T09:50:36.014Z,1014.75
2022-10-28T09:51:36.007Z,1014.73
2022-10-28T09:52:36.017Z,1014.69
2022-10-28T09:53:36.322Z,1014.59
2022-10-28T09:54:35.986Z,1014.65
2022-10-28T09:55:35.973Z,1014.59
2022-10-28T09:56:35.968Z,1014.58
2022-10-28T09:57:35.953Z,1014.60
2022-10-28T09:58:35.933Z,1014.58
2022-10-28T09:59:35.939Z,1014.61
2022-10-28T10:00:35.914Z,1014.58
2022-10-28T10:01:36.008Z,1014.56
2022-10-28T10:02:36.055Z,1014.55
2022-10-28T10:03:35.876Z,1014.49
2022-10-28T10:04:35.898Z,1014.40
2022-10-28T10:05:35.875Z,1014.47
2022-10-28T10:06:35.874Z,1014.47
2022-10-28T10:07:35.886Z,1014.47
2022-10-28T10:08:35.865Z,1014.47
2022-10-28T10:09:35.809Z,1014.46
2022-10-28T10:10:35.806Z,1014.50
2022-10-28T10:11:35.789Z,1014.55
2022-10-28T10:12:35.770Z,1014.52
2022-10-28T10:13:35.776Z,1014.59
2022-10-28T10:14:35.762Z,1014.56
2022-10-28T10:15:35.761Z,1014.56
2022-10-28T10:16:35.734Z,1014.51
2022-10-28T10:17:35.730Z,1014.50
2022-10-28T10:18:35.720Z,1014.51
2022-10-28T10:19:35.705Z,1014.45
2022-10-28T10:20:35.683Z,1014.45
2022-10-28T10:21:35.686Z,1014.44
2022-10-28T10:22:35.660Z,1014.45
2022-10-28T10:23:35.717Z,1014.41
2022-10-28T10:24:35.679Z,1014.42
2022-10-28T10:25:35.643Z,1014.41
2022-10-28T10:26:35.626Z,1014.44
2022-10-28T10:27:35.613Z,1014.45
2022-10-28T10:28:35.614Z,1014.42
2022-10-28T10:29:35.610Z,1014.42
2022-10-28T10:30:35.591Z,1014.38
2022-10-28T10:31:35.567Z,1014.35
2022-10-28T10:32:35.558Z,1014.37
2022-10-28T10:33:35.553Z,1014.36
2022-10-28T10:34:35.562Z,1014.35
2022-10-28T10:35:35.523Z,1014.33
2022-10-28T10:36:35.516Z,1014.30
2022-10-28T10:37:35.503Z,1014.29
2022-10-28T10:38:35.497Z,1014.22
2022-10-28T10:39:35.499Z,1014.27
2022-10-28T10:40:35.467Z,1014.25
2022-10-28T10:41:35.469Z,1014.29
2022-10-28T10:42:42.543Z,1014.29
2022-10-28T10:43:35.452Z,1014.25
2022-10-28T10:44:35.440Z,1014.26
2022-10-28T10:45:35.427Z,1014.20
2022-10-28T10:46:35.406Z,1014.16
2022-10-28T10:47:35.412Z,1014.17
2022-10-28T10:48:35.384Z,1014.20
2022-10-28T10:49:35.394Z,1014.16
2022-10-28T10:50:35.377Z,1014.19
2022-10-28T10:51:37.501Z,1014.17
2022-10-28T10:52:35.344Z,1014.19
2022-10-28T10:53:35.330Z,1014.09
2022-10-28T10:54:35.324Z,1014.04
2022-10-28T10:55:35.326Z,1014.05
2022-10-28T10:56:35.298Z,1014.03
2022-10-28T10:57:35.298Z,1014.04
2022-10-28T10:58:35.279Z,1013.99
2022-10-28T10:59:35.264Z,1014.02
2022-10-28T11:00:35.268Z,1013.99
2022-10-28T11:01:35.439Z,1013.95
2022-10-28T11:02:35.384Z,1013.97
2022-10-28T11:03:35.220Z,1014.01
2022-10-28T11:04:35.212Z,1013.97
2022-10-28T11:05:38.175Z,1013.99
2022-10-28T11:06:35.227Z,1014.00
2022-10-28T11:07:35.184Z,1013.96
2022-10-28T11:08:35.171Z,1013.96
2022-10-28T11:09:35.347Z,1013.94
2022-10-28T11:10:35.140Z,1013.91
2022-10-28T11:11:35.139Z,1013.92
2022-10-28T11:12:35.129Z,1013.94
2022-10-28T11:13:35.106Z,1013.90
2022-10-28T11:14:35.124Z,1013.94
2022-10-28T11:15:35.081Z,1013.98
2022-10-28T11:16:35.090Z,1013.93
2022-10-28T11:17:35.154Z,1013.94
2022-10-28T11:18:35.071Z,1013.95
2022-10-28T11:19:35.049Z,1013.96
2022-10-28T11:20:35.043Z,1013.93
2022-10-28T11:21:35.072Z,1013.87
2022-10-28T11:22:35.036Z,1013.89
2022-10-28T11:23:35.022Z,1013.90
2022-10-28T11:24:34.992Z,1013.92
2022-10-28T11:25:34.979Z,1013.85
2022-10-28T11:26:34.974Z,1013.85
2022-10-28T11:27:34.989Z,1013.89
2022-10-28T11:28:34.950Z,1013.85
2022-10-28T11:29:34.934Z,1013.84
2022-10-28T11:30:34.933Z,1013.88
2022-10-28T11:31:34.917Z,1013.86
2022-10-28T11:32:40.216Z,1013.88
2022-10-28T11:33:35.350Z,1013.92
2022-10-28T11:34:34.883Z,1013.88
2022-10-28T11:35:34.863Z,1013.86
2022-10-28T11:36:34.869Z,1013.89
2022-10-28T11:37:34.847Z,1013.87
2022-10-28T11:38:34.852Z,1013.88
2022-10-28T11:39:34.817Z,1013.85
2022-10-28T11:40:34.815Z,1013.89
2022-10-28T11:41:34.808Z,1013.84
2022-10-28T11:42:34.811Z,1013.81
2022-10-28T11:43:34.786Z,1013.75
2022-10-28T11:44:34.820Z,1013.78
2022-10-28T11:45:34.760Z,1013.70
2022-10-28T11:46:34.746Z,1013.70
2022-10-28T11:47:34.743Z,1013.68
2022-10-28T11:48:34.738Z,1013.67
2022-10-28T11:49:34.723Z,1013.72
2022-10-28T11:50:34.731Z,1013.66
2022-10-28T11:51:34.683Z,1013.70
2022-10-28T11:52:34.696Z,1013.69
2022-10-28T11:53:34.661Z,1013.67
2022-10-28T11:54:34.663Z,1013.68
2022-10-28T11:55:34.648Z,1013.66
2022-10-28T11:56:34.637Z,1013.67
2022-10-28T11:57:34.658Z,1013.70
2022-10-28T11:58:34.617Z,1013.66
2022-10-28T11:59:34.605Z,1013.65
2022-10-28T12:00:34.604Z,1013.64
2022-10-28T12:01:34.774Z,1013.65
2022-10-28T12:02:34.669Z,1013.62
2022-10-28T12:03:34.555Z,1013.64
2022-10-28T12:04:34.554Z,1013.62
2022-10-28T12:05:34.542Z,1013.64
2022-10-28T12:06:34.538Z,1013.64